Time;durP1;ratioP1;P1;durP2;ratioP2;P2;SDS_P1;SDS_P2;PMS_P1;PMS_P2;Temp;Humidity;BMP_temperature;BMP_pressure;BME280_temperature;BME280_humidity;BME280_pressure;Samples;Min_cycle;Max_cycle;Signal;HPM_P1;HPM_P2
2021/03/08 00:00:45;;;;;;;30.57;22.33;;;;;;;2.14;100.00;102578.97;1736625;81;936851;-74
2021/03/08 00:03:16;;;;;;;35.73;22.53;;;;;;;2.29;100.00;102578.45;1736601;81;938698;-75
2021/03/08 00:05:46;;;;;;;37.33;22.50;;;;;;;2.13;100.00;102573.15;1736635;80;935618;-75
2021/03/08 00:08:16;;;;;;;28.38;20.70;;;;;;;2.41;100.00;102570.08;1758062;80;938830;-75
2021/03/08 00:10:46;;;;;;;31.03;21.70;;;;;;;2.19;100.00;102573.23;1736682;80;936892;-74
2021/03/08 00:13:16;;;;;;;31.47;20.70;;;;;;;2.25;100.00;102574.38;1758021;80;938582;-74
2021/03/08 00:15:48;;;;;;;30.70;20.40;;;;;;;2.27;100.00;102573.66;1736724;80;936892;-74
2021/03/08 00:18:18;;;;;;;29.90;20.47;;;;;;;2.22;100.00;102562.43;1758040;80;938643;-74
2021/03/08 00:20:48;;;;;;;34.63;21.90;;;;;;;2.47;100.00;102564.36;1758143;79;936853;-74
2021/03/08 00:23:18;;;;;;;28.83;21.43;;;;;;;2.32;100.00;102561.61;1736559;80;937778;-74
2021/03/08 00:25:48;;;;;;;31.47;20.37;;;;;;;2.43;100.00;102554.30;1758176;80;936699;-75
2021/03/08 00:28:17;;;;;;;29.03;20.47;;;;;;;2.42;100.00;102563.55;1757987;80;938723;-74
2021/03/08 00:30:47;;;;;;;33.00;20.50;;;;;;;2.50;100.00;102560.71;1736608;81;935820;-74
2021/03/08 00:33:17;;;;;;;29.63;20.00;;;;;;;2.33;100.00;102555.61;1736652;81;938534;-74
2021/03/08 00:35:47;;;;;;;31.07;21.43;;;;;;;2.35;100.00;102554.91;1736715;81;937029;-74
2021/03/08 00:38:17;;;;;;;29.63;20.07;;;;;;;2.37;100.00;102556.93;1758133;79;937515;-74
2021/03/08 00:40:47;;;;;;;32.57;20.43;;;;;;;2.33;100.00;102553.72;1736561;80;935723;-74
2021/03/08 00:43:16;;;;;;;29.50;20.73;;;;;;;2.32;100.00;102550.64;1736595;81;938859;-74
2021/03/08 00:45:46;;;;;;;30.40;19.50;;;;;;;2.37;100.00;102541.33;1736728;81;936738;-74
2021/03/08 00:48:16;;;;;;;30.63;20.27;;;;;;;2.38;100.00;102540.30;1758164;79;937445;-74
2021/03/08 00:50:46;;;;;;;29.07;20.70;;;;;;;2.45;100.00;102546.71;1758247;79;936595;-74
2021/03/08 00:53:15;;;;;;;30.87;20.83;;;;;;;2.45;100.00;102548.08;1736688;81;938684;-74
2021/03/08 00:55:45;;;;;;;27.17;19.47;;;;;;;2.39;100.00;102536.52;1736774;80;936898;-74
2021/03/08 00:58:15;;;;;;;30.27;20.10;;;;;;;2.53;100.00;102545.75;1758127;79;937559;-74
2021/03/08 01:00:45;;;;;;;30.50;20.03;;;;;;;2.47;100.00;102535.05;1758045;79;936706;-74
2021/03/08 01:03:15;;;;;;;27.43;19.93;;;;;;;2.74;100.00;102536.20;1736459;81;937795;-74
2021/03/08 01:05:47;;;;;;;32.37;21.13;;;;;;;2.63;100.00;102547.17;1736570;81;936588;-74
2021/03/08 01:08:17;;;;;;;30.03;20.33;;;;;;;2.62;100.00;102550.09;1758085;80;937940;-74
2021/03/08 01:10:47;;;;;;;28.83;20.77;;;;;;;2.58;100.00;102537.29;1736677;81;936968;-75
2021/03/08 01:13:17;;;;;;;27.00;20.10;;;;;;;2.56;100.00;102544.87;1758111;80;938724;-75
2021/03/08 01:15:47;;;;;;;30.63;20.67;;;;;;;2.52;100.00;102540.81;1736642;81;935605;-74
2021/03/08 01:18:17;;;;;;;30.37;20.67;;;;;;;2.54;100.00;102536.48;1736495;81;937734;-74
2021/03/08 01:20:48;;;;;;;30.37;19.87;;;;;;;2.61;100.00;102533.33;1736724;81;936814;-74
2021/03/08 01:23:18;;;;;;;30.00;21.03;;;;;;;2.60;100.00;102528.88;1758169;79;937911;-75
2021/03/08 01:25:47;;;;;;;28.67;20.13;;;;;;;2.66;100.00;102526.72;1736729;81;936743;-74
2021/03/08 01:28:18;;;;;;;27.90;20.63;;;;;;;2.58;100.00;102530.43;1736707;80;937506;-74
2021/03/08 01:30:48;;;;;;;28.93;20.00;;;;;;;2.48;100.00;102524.38;1757984;80;935748;-75
2021/03/08 01:33:18;;;;;;;33.80;21.20;;;;;;;2.61;100.00;102530.59;1758057;79;938802;-75
2021/03/08 01:35:48;;;;;;;29.83;20.77;;;;;;;2.69;100.00;102534.59;1736550;81;936825;-75
2021/03/08 01:38:18;;;;;;;28.03;20.10;;;;;;;2.72;100.00;102532.83;1736626;81;938781;-75
2021/03/08 01:40:48;;;;;;;29.87;22.00;;;;;;;2.64;100.00;102528.30;1736438;81;936808;-74
2021/03/08 01:43:18;;;;;;;32.33;20.97;;;;;;;2.65;100.00;102534.09;1758127;80;937442;-74
2021/03/08 01:45:50;;;;;;;31.93;20.60;;;;;;;2.70;100.00;102529.41;1757365;79;938880;-74
2021/03/08 01:48:20;;;;;;;32.20;21.80;;;;;;;2.60;100.00;102517.91;1726253;81;937788;-74
2021/03/08 01:50:51;;;;;;;29.47;21.33;;;;;;;2.59;100.00;102528.02;1725175;80;937806;-74
2021/03/08 01:53:23;;;;;;;30.57;21.13;;;;;;;2.61;100.00;102526.47;1736674;81;938697;-74
2021/03/08 01:55:52;;;;;;;30.63;19.07;;;;;;;2.67;100.00;102516.08;1724940;81;938656;-75
2021/03/08 01:58:23;;;;;;;28.20;20.73;;;;;;;2.69;100.00;102517.61;1758202;80;937747;-74
2021/03/08 02:00:53;;;;;;;31.63;21.80;;;;;;;2.54;100.00;102507.17;1725067;80;937663;-74
2021/03/08 02:03:23;;;;;;;30.00;21.23;;;;;;;2.35;100.00;102507.78;1736491;81;938666;-74
2021/03/08 02:05:53;;;;;;;31.77;21.10;;;;;;;2.47;100.00;102498.54;1746488;80;938631;-74
2021/03/08 02:08:26;;;;;;;30.83;20.13;;;;;;;2.33;100.00;102502.14;1736527;81;938769;-74
2021/03/08 02:10:56;;;;;;;30.68;20.68;;;;;;;2.23;100.00;102505.16;1725101;80;938637;-74
2021/03/08 02:13:52;;;;;;;30.90;20.67;;;;;;;2.26;100.00;102502.92;1758275;80;937495;-75
2021/03/08 02:16:26;;;;;;;28.63;19.67;;;;;;;2.15;100.00;102506.12;1752466;80;937980;-75
2021/03/08 02:19:00;;;;;;;31.07;20.73;;;;;;;2.19;100.00;102501.95;1746344;79;937467;-76
2021/03/08 02:21:44;;;;;;;27.20;18.70;;;;;;;2.08;100.00;102496.11;1736534;81;938605;-73
2021/03/08 02:24:54;;;;;;;30.77;20.17;;;;;;;2.04;100.00;102494.27;1744914;80;1043662;-73
2021/03/08 02:27:46;;;;;;;29.13;20.70;;;;;;;2.09;100.00;102500.05;1757946;80;940674;-74
2021/03/08 02:30:39;;;;;;;30.50;20.97;;;;;;;2.01;100.00;102498.73;1735737;80;938840;-74
2021/03/08 02:33:11;;;;;;;30.33;21.00;;;;;;;1.94;100.00;102503.28;1746521;79;938634;-73
2021/03/08 02:35:44;;;;;;;35.00;20.97;;;;;;;1.97;100.00;102497.41;1736531;81;936751;-73
2021/03/08 02:38:18;;;;;;;31.93;20.63;;;;;;;2.00;100.00;102496.20;1736400;81;937678;-74
2021/03/08 02:40:50;;;;;;;31.07;21.00;;;;;;;1.91;100.00;102498.70;1758085;80;936020;-73
2021/03/08 02:43:23;;;;;;;32.93;21.53;;;;;;;2.05;100.00;102488.27;1757930;80;938597;-73
2021/03/08 02:45:54;;;;;;;31.93;21.07;;;;;;;2.04;100.00;102493.42;1725099;81;938875;-73
2021/03/08 02:48:27;;;;;;;32.47;21.80;;;;;;;1.93;100.00;102482.39;1758014;80;938711;-73
2021/03/08 02:50:58;;;;;;;31.10;21.68;;;;;;;1.90;100.00;102484.14;1746338;79;938675;-74
2021/03/08 02:53:31;;;;;;;30.93;21.07;;;;;;;2.00;100.00;102470.17;1758041;80;938565;-74
2021/03/08 02:56:04;;;;;;;32.08;22.42;;;;;;;1.76;100.00;102474.88;1724954;80;938696;-74
2021/03/08 02:58:37;;;;;;;33.97;20.87;;;;;;;1.65;100.00;102475.86;1736519;81;936733;-73
2021/03/08 03:01:09;;;;;;;33.00;21.80;;;;;;;1.63;100.00;102478.78;1746501;79;938601;-74
2021/03/08 03:03:42;;;;;;;32.30;21.13;;;;;;;1.55;100.00;102480.23;1736455;80;936597;-73
2021/03/08 03:06:14;;;;;;;34.63;22.47;;;;;;;1.58;100.00;102485.36;1724922;80;937505;-74
2021/03/08 03:08:46;;;;;;;33.40;23.10;;;;;;;1.50;100.00;102479.93;1736433;81;935667;-74
2021/03/08 03:11:16;;;;;;;34.67;21.97;;;;;;;1.53;100.00;102486.42;1736587;81;937534;-73
2021/03/08 03:13:49;;;;;;;32.10;22.27;;;;;;;1.49;100.00;102488.35;1736552;81;935726;-73
2021/03/08 03:16:20;;;;;;;35.23;22.50;;;;;;;1.35;100.00;102484.53;1736588;81;937847;-74
2021/03/08 03:18:52;;;;;;;32.37;23.23;;;;;;;1.41;100.00;102486.55;1724984;80;937855;-74
2021/03/08 03:21:25;;;;;;;33.43;22.50;;;;;;;1.52;100.00;102483.86;1736633;80;938599;-74
2021/03/08 03:23:57;;;;;;;35.55;23.95;;;;;;;1.33;100.00;102487.45;1725019;81;937956;-73
2021/03/08 03:26:31;;;;;;;34.70;23.20;;;;;;;1.38;100.00;102489.12;1758022;79;938582;-73
2021/03/08 03:29:03;;;;;;;35.40;23.30;;;;;;;1.33;100.00;102484.71;1746718;79;938797;-74
2021/03/08 03:31:34;;;;;;;35.40;23.93;;;;;;;1.35;100.00;102491.37;1736739;80;937513;-74
2021/03/08 03:34:06;;;;;;;39.73;24.87;;;;;;;1.38;100.00;102498.70;1746476;80;937857;-73
2021/03/08 03:36:37;;;;;;;34.37;23.80;;;;;;;1.42;100.00;102493.70;1758128;80;936763;-73
2021/03/08 03:39:10;;;;;;;38.40;25.23;;;;;;;1.34;100.00;102496.00;1725394;81;938685;-72
2021/03/08 03:41:41;;;;;;;34.40;23.67;;;;;;;1.36;100.00;102498.05;1758142;80;936824;-74
2021/03/08 03:44:12;;;;;;;35.53;23.90;;;;;;;1.40;100.00;102494.94;1725166;81;937852;-73
2021/03/08 03:46:44;;;;;;;35.50;24.70;;;;;;;1.47;100.00;102495.38;1736702;81;936714;-73
2021/03/08 03:49:31;;;;;;;32.27;23.33;;;;;;;1.48;100.00;102492.13;1656662;85;937754;-73
2021/03/08 03:52:00;;;;;;;37.05;23.62;;;;;;;1.47;100.00;102494.52;1664914;83;937613;-74
2021/03/08 03:54:31;;;;;;;34.45;24.57;;;;;;;1.55;100.00;102489.81;1675927;83;937675;-73
2021/03/08 03:57:04;;;;;;;36.85;24.25;;;;;;;1.54;100.00;102499.06;1664800;84;940266;-74
2021/03/08 03:59:39;;;;;;;40.60;23.67;;;;;;;1.67;100.00;102495.17;1676153;84;937677;-74
2021/03/08 04:02:11;;;;;;;41.23;25.70;;;;;;;1.93;100.00;102498.83;1665158;84;938875;-74
2021/03/08 04:04:46;;;;;;;34.37;23.27;;;;;;;1.83;100.00;102490.06;1686144;83;936958;-74
2021/03/08 04:07:17;;;;;;;37.97;24.90;;;;;;;1.52;100.00;102503.89;1686117;83;938801;-74
2021/03/08 04:09:50;;;;;;;36.70;23.53;;;;;;;1.76;100.00;102494.56;1686315;83;936957;-74
2021/03/08 04:12:22;;;;;;;34.47;23.63;;;;;;;1.65;100.00;102500.52;1686276;83;938775;-74
2021/03/08 04:14:56;;;;;;;33.17;22.13;;;;;;;1.50;100.00;102499.09;1675215;83;937862;-73
2021/03/08 04:17:27;;;;;;;33.87;22.20;;;;;;;1.56;100.00;102502.99;1686283;83;938588;-74
2021/03/08 04:20:00;;;;;;;37.28;24.27;;;;;;;1.49;100.00;102502.05;1675269;83;938969;-74
2021/03/08 04:22:33;;;;;;;35.67;24.30;;;;;;;1.49;100.00;102509.75;1762281;79;937511;-77
2021/03/08 04:25:05;;;;;;;35.63;23.22;;;;;;;1.59;100.00;102507.58;1757382;78;937386;-74
2021/03/08 04:27:36;;;;;;;34.10;23.63;;;;;;;1.58;100.00;102510.01;1769041;79;935508;-74
2021/03/08 04:30:09;;;;;;;35.08;25.02;;;;;;;1.54;100.00;102504.53;1757247;79;937868;-73
2021/03/08 04:32:39;;;;;;;36.63;23.63;;;;;;;1.64;100.00;102515.23;1768915;79;935551;-73
2021/03/08 04:35:12;;;;;;;37.47;22.97;;;;;;;1.55;100.00;102515.83;1757213;79;938668;-73
2021/03/08 04:37:42;;;;;;;36.60;23.63;;;;;;;1.58;100.00;102514.11;1768940;79;936708;-74
2021/03/08 04:40:15;;;;;;;35.13;22.67;;;;;;;1.49;100.00;102513.85;1757359;79;937879;-73
2021/03/08 04:42:47;;;;;;;34.67;23.43;;;;;;;1.47;100.00;102513.17;1769028;79;936820;-73
2021/03/08 04:45:20;;;;;;;35.03;22.67;;;;;;;1.45;100.00;102515.77;1768704;79;938676;-73
2021/03/08 04:47:51;;;;;;;34.60;22.67;;;;;;;1.43;100.00;102517.83;1757121;79;937957;-73
2021/03/08 04:50:21;;;;;;;34.33;23.03;;;;;;;1.38;100.00;102506.91;1768878;79;938769;-73
2021/03/08 04:52:53;;;;;;;36.40;24.17;;;;;;;1.44;100.00;102508.07;1757217;79;938714;-73
2021/03/08 04:55:26;;;;;;;36.33;24.03;;;;;;;1.42;100.00;102514.75;1768727;79;938593;-73
2021/03/08 04:57:56;;;;;;;34.58;23.42;;;;;;;1.38;100.00;102521.12;1757263;79;938779;-73
2021/03/08 05:00:27;;;;;;;35.13;22.73;;;;;;;1.47;100.00;102524.13;1757259;79;938645;-73
2021/03/08 05:02:58;;;;;;;36.80;23.10;;;;;;;1.56;100.00;102510.69;1757026;79;937604;-76
2021/03/08 05:05:29;;;;;;;32.93;23.38;;;;;;;1.66;100.00;102515.92;1768691;79;937389;-73
2021/03/08 05:08:03;;;;;;;33.33;23.90;;;;;;;1.56;100.00;102518.05;1757172;79;937816;-74
2021/03/08 05:10:34;;;;;;;32.47;23.13;;;;;;;1.56;100.00;102518.05;1768933;79;937748;-73
2021/03/08 05:13:08;;;;;;;36.30;23.98;;;;;;;1.58;100.00;102523.70;1757232;79;938847;-73
2021/03/08 05:15:38;;;;;;;33.23;22.53;;;;;;;1.66;100.00;102520.88;1768903;79;936833;-74
2021/03/08 05:18:11;;;;;;;34.78;23.90;;;;;;;1.63;100.00;102507.53;1757264;78;938495;-74
2021/03/08 05:20:42;;;;;;;34.47;23.23;;;;;;;1.64;100.00;102513.86;1768930;79;936762;-73
2021/03/08 05:23:12;;;;;;;35.80;23.27;;;;;;;1.81;100.00;102505.30;1757335;79;938784;-75
2021/03/08 05:25:44;;;;;;;34.20;23.92;;;;;;;1.79;100.00;102501.06;1768630;79;936746;-74
2021/03/08 05:28:16;;;;;;;38.37;23.77;;;;;;;1.76;100.00;102501.41;1768786;78;938554;-74
2021/03/08 05:30:46;;;;;;;36.40;23.13;;;;;;;1.72;100.00;102501.45;1768961;79;936840;-76
2021/03/08 05:33:19;;;;;;;33.90;23.03;;;;;;;1.78;100.00;102497.98;1768873;79;937688;-74
2021/03/08 05:35:53;;;;;;;36.77;24.30;;;;;;;1.88;100.00;102501.83;1766802;79;937448;-75
2021/03/08 05:38:24;;;;;;;34.43;22.97;;;;;;;1.96;100.00;102492.14;1768563;79;937957;-75
2021/03/08 05:41:05;;;;;;;35.63;24.45;;;;;;;1.87;100.00;102487.78;1757312;79;937370;-74
2021/03/08 05:43:38;;;;;;;33.90;23.57;;;;;;;1.94;100.00;102490.09;1768868;79;935658;-74
2021/03/08 05:46:11;;;;;;;35.67;23.97;;;;;;;1.84;100.00;102491.73;1757264;79;937662;-74
2021/03/08 05:49:15;;;;;;;35.27;25.07;;;;;;;1.88;100.00;102495.83;1768718;79;935708;-74
2021/03/08 05:52:23;;;;;;;36.80;23.87;;;;;;;1.89;100.00;102488.43;1768537;79;936183;-72
2021/03/08 05:55:28;;;;;;;36.98;25.10;;;;;;;2.00;100.00;102482.50;1756156;79;937765;-75
2021/03/08 05:58:19;;;;;;;39.50;25.60;;;;;;;2.17;100.00;102492.23;1728436;79;937520;-72
2021/03/08 06:01:17;;;;;;;39.90;25.72;;;;;;;1.95;100.00;102494.55;1760589;79;937777;-75
2021/03/08 06:04:23;;;;;;;35.83;23.73;;;;;;;2.00;100.00;102495.69;1767983;78;936903;-73
2021/03/08 06:07:45;;;;;;;33.38;23.38;;;;;;;1.99;100.00;102499.46;1746194;79;938775;-74
2021/03/08 06:10:20;;;;;;;39.83;26.57;;;;;;;1.92;100.00;102497.16;1677340;84;938867;-75
2021/03/08 06:12:51;;;;;;;36.53;25.93;;;;;;;1.94;100.00;102498.31;1661338;84;938779;-74
2021/03/08 06:15:23;;;;;;;36.73;26.30;;;;;;;1.97;100.00;102499.33;1672399;85;938805;-74
2021/03/08 06:17:54;;;;;;;38.33;26.17;;;;;;;2.01;100.00;102500.66;1661398;84;938671;-73
2021/03/08 06:20:24;;;;;;;37.30;25.40;;;;;;;1.95;100.00;102497.28;1672318;85;937875;-73
2021/03/08 06:22:56;;;;;;;37.27;24.30;;;;;;;2.00;100.00;102497.58;1661536;85;938790;-74
2021/03/08 06:25:27;;;;;;;35.57;24.10;;;;;;;2.10;100.00;102502.23;1672388;85;938630;-74
2021/03/08 06:27:57;;;;;;;37.88;25.05;;;;;;;2.04;100.00;102502.49;1661402;85;938807;-74
2021/03/08 06:30:29;;;;;;;36.60;24.60;;;;;;;2.10;100.00;102500.86;1672398;85;938988;-74
2021/03/08 06:32:59;;;;;;;34.53;23.62;;;;;;;2.21;100.00;102505.89;1661501;85;938784;-74
2021/03/08 06:35:29;;;;;;;36.13;23.57;;;;;;;2.24;100.00;102506.36;1672432;85;937660;-74
2021/03/08 06:38:01;;;;;;;36.40;24.55;;;;;;;2.14;100.00;102508.52;1661231;85;938701;-73
2021/03/08 06:40:31;;;;;;;40.27;25.03;;;;;;;2.08;100.00;102507.07;1672346;85;938836;-74
2021/03/08 06:43:01;;;;;;;37.60;25.02;;;;;;;2.05;100.00;102504.72;1661503;85;943810;-74
2021/03/08 06:45:30;;;;;;;38.20;26.17;;;;;;;2.20;100.00;102506.92;1705620;82;937862;-74
2021/03/08 06:48:00;;;;;;;37.55;24.90;;;;;;;2.15;100.00;102507.48;1696665;83;937874;-74
2021/03/08 06:50:30;;;;;;;35.53;25.23;;;;;;;2.21;100.00;102508.63;1760229;80;938903;-74
2021/03/08 06:53:00;;;;;;;38.95;24.70;;;;;;;2.35;100.00;102509.16;1748605;80;938564;-75
2021/03/08 06:55:31;;;;;;;35.43;24.13;;;;;;;2.18;100.00;102507.10;1760272;80;938675;-74
2021/03/08 06:58:18;;;;;;;37.73;23.90;;;;;;;2.20;100.00;102502.81;1748353;79;937731;-73
2021/03/08 07:00:48;;;;;;;36.53;25.00;;;;;;;2.24;100.00;102503.61;1760041;80;935913;-73
2021/03/08 07:03:34;;;;;;;37.83;24.93;;;;;;;2.27;100.00;102511.97;1760175;80;937370;-73
2021/03/08 07:06:18;;;;;;;36.48;23.15;;;;;;;2.26;100.00;102515.25;1748850;79;937938;-73
2021/03/08 07:08:48;;;;;;;35.90;23.87;;;;;;;2.37;100.00;102519.91;1760310;80;935704;-73
2021/03/08 07:11:22;;;;;;;34.73;23.77;;;;;;;2.53;100.00;102517.80;1760214;80;938682;-74
2021/03/08 07:13:52;;;;;;;34.17;24.20;;;;;;;2.53;100.00;102521.06;1748717;79;938631;-74
2021/03/08 07:16:23;;;;;;;35.60;24.30;;;;;;;2.53;100.00;102518.32;1760260;79;938900;-75
2021/03/08 07:18:59;;;;;;;34.50;23.40;;;;;;;2.47;100.00;102518.59;1747483;79;938699;-75
2021/03/08 07:21:29;;;;;;;36.90;24.50;;;;;;;2.58;100.00;102522.72;1760285;80;938665;-75
2021/03/08 07:24:11;;;;;;;37.50;24.87;;;;;;;2.74;100.00;102519.74;1748726;79;938689;-75
2021/03/08 07:26:51;;;;;;;36.73;24.40;;;;;;;2.72;100.00;102521.84;1760205;80;935989;-75
2021/03/08 07:29:23;;;;;;;35.43;23.40;;;;;;;2.73;100.00;102523.55;1760126;80;938540;-74
2021/03/08 07:31:56;;;;;;;35.65;25.55;;;;;;;2.69;100.00;102524.98;1748653;80;937873;-73
2021/03/08 07:34:28;;;;;;;36.73;24.07;;;;;;;2.72;100.00;102528.19;1760140;79;937459;-74
2021/03/08 07:37:02;;;;;;;32.90;23.45;;;;;;;2.88;100.00;102520.75;1748882;80;937592;-74
2021/03/08 07:39:32;;;;;;;35.27;24.20;;;;;;;2.98;100.00;102519.94;1760329;80;937725;-74
2021/03/08 07:42:04;;;;;;;34.00;24.10;;;;;;;2.85;100.00;102520.63;1748826;79;938658;-74
2021/03/08 07:44:35;;;;;;;39.93;24.87;;;;;;;2.93;100.00;102523.77;1760408;79;936803;-73
2021/03/08 07:47:18;;;;;;;37.37;24.27;;;;;;;2.95;100.00;102528.02;1748907;80;937565;-75
2021/03/08 07:49:48;;;;;;;36.50;24.50;;;;;;;2.89;100.00;102528.80;1760387;80;937017;-74
2021/03/08 07:52:19;;;;;;;41.20;25.77;;;;;;;2.93;100.00;102510.05;1760306;80;938655;-74
2021/03/08 07:54:58;;;;;;;37.57;25.03;;;;;;;3.09;100.00;102529.02;1759195;79;938822;-74
2021/03/08 07:57:29;;;;;;;35.77;23.57;;;;;;;3.08;100.00;102530.08;1760161;80;938612;-73
2021/03/08 07:59:59;;;;;;;38.57;25.17;;;;;;;3.04;100.00;102540.58;1748530;79;938627;-73
2021/03/08 08:02:29;;;;;;;33.07;24.73;;;;;;;3.03;100.00;102543.02;1760174;79;938676;-73
2021/03/08 08:04:58;;;;;;;31.90;23.73;;;;;;;3.24;100.00;102538.58;1748538;79;938863;-73
2021/03/08 08:07:30;;;;;;;34.53;23.90;;;;;;;3.29;100.00;102537.48;1760156;79;937679;-73
2021/03/08 08:10:04;;;;;;;40.23;24.72;;;;;;;3.43;100.00;102533.27;1748614;79;937582;-72
2021/03/08 08:12:37;;;;;;;37.03;24.37;;;;;;;3.44;100.00;102541.84;1760317;79;937672;-73
2021/03/08 08:15:10;;;;;;;37.57;23.03;;;;;;;3.60;100.00;102535.21;1748696;80;938010;-73
2021/03/08 08:17:42;;;;;;;35.90;24.73;;;;;;;3.72;100.00;102539.14;1760214;80;936936;-73
2021/03/08 08:20:14;;;;;;;33.27;23.57;;;;;;;3.70;100.00;102540.38;1748733;80;938932;-73
2021/03/08 08:22:48;;;;;;;36.50;24.50;;;;;;;3.73;100.00;102538.59;1760356;80;936785;-75
2021/03/08 08:25:21;;;;;;;35.43;23.23;;;;;;;3.96;100.00;102540.59;1759770;79;938837;-74
2021/03/08 08:27:52;;;;;;;36.80;24.43;;;;;;;4.24;100.00;102536.42;1748679;79;938726;-73
2021/03/08 08:30:27;;;;;;;35.37;24.37;;;;;;;4.32;100.00;102540.41;1760195;79;938661;-73
2021/03/08 08:32:59;;;;;;;33.45;23.22;;;;;;;4.36;100.00;102538.44;1748511;80;938672;-73
2021/03/08 08:35:31;;;;;;;34.97;24.13;;;;;;;4.34;100.00;102544.65;1760196;80;938604;-74
2021/03/08 08:38:21;;;;;;;31.27;23.92;;;;;;;4.61;100.00;102540.66;1748759;80;937693;-74
2021/03/08 08:41:11;;;;;;;34.10;23.90;;;;;;;4.76;100.00;102535.84;1748475;80;937557;-73
2021/03/08 08:43:41;;;;;;;36.93;23.17;;;;;;;4.76;100.00;102535.84;1760121;80;935805;-73
2021/03/08 08:46:26;;;;;;;32.93;23.27;;;;;;;4.90;100.00;102534.84;1748627;80;937465;-74
2021/03/08 08:49:09;;;;;;;36.48;24.47;;;;;;;5.01;100.00;102524.59;1748495;79;937811;-73
2021/03/08 08:51:50;;;;;;;39.10;26.33;;;;;;;5.05;100.00;102521.22;1759992;80;935707;-73
2021/03/08 08:54:55;;;;;;;39.97;24.73;;;;;;;5.04;100.00;102522.83;1760071;79;937601;-74
2021/03/08 08:57:25;;;;;;;39.17;26.47;;;;;;;5.12;100.00;102520.41;1760229;80;937369;-73
2021/03/08 09:00:18;;;;;;;40.45;27.13;;;;;;;5.29;100.00;102523.09;1748561;79;937706;-75
2021/03/08 09:02:48;;;;;;;39.23;24.60;;;;;;;5.32;100.00;102520.75;1760032;79;936658;-74
2021/03/08 09:05:41;;;;;;;34.07;24.90;;;;;;;5.32;100.00;102513.86;1760330;79;938640;-75
2021/03/08 09:08:31;;;;;;;42.03;28.13;;;;;;;5.35;100.00;102516.19;1748822;79;938747;-73
2021/03/08 09:11:01;;;;;;;37.07;25.73;;;;;;;5.34;100.00;102518.66;1748765;77;937849;-74
2021/03/08 09:13:31;;;;;;;36.43;25.37;;;;;;;5.29;100.00;102514.30;1760091;80;937423;-74
2021/03/08 09:16:09;;;;;;;34.78;24.98;;;;;;;5.51;100.00;102508.06;1748617;80;937911;-75
2021/03/08 09:18:39;;;;;;;34.30;24.50;;;;;;;5.54;100.00;102508.16;1755608;80;936596;-74
2021/03/08 09:21:25;;;;;;;34.27;24.63;;;;;;;5.70;100.00;102511.86;1748599;79;937692;-74
2021/03/08 09:23:55;;;;;;;35.98;25.37;;;;;;;5.94;100.00;102505.22;1748625;79;938681;-74
2021/03/08 09:26:24;;;;;;;38.67;24.70;;;;;;;5.94;100.00;102505.75;1760291;80;938821;-73
2021/03/08 09:28:54;;;;;;;33.35;23.98;;;;;;;5.98;100.00;102503.41;1748595;79;938790;-74
2021/03/08 09:31:25;;;;;;;34.17;25.03;;;;;;;6.14;100.00;102504.32;1760150;80;937841;-74
2021/03/08 09:33:54;;;;;;;31.83;23.10;;;;;;;6.17;100.00;102499.22;1748561;80;938595;-74
2021/03/08 09:36:24;;;;;;;36.07;23.97;;;;;;;6.13;100.00;102499.33;1760322;79;938858;-74
2021/03/08 09:38:54;;;;;;;31.80;23.73;;;;;;;6.26;100.00;102498.45;1748742;79;938849;-74
2021/03/08 09:41:30;;;;;;;33.70;23.90;;;;;;;6.16;100.00;102501.65;1760273;80;938998;-74
2021/03/08 09:43:59;;;;;;;31.17;23.23;;;;;;;6.26;100.00;102503.44;1748734;80;938707;-74
2021/03/08 09:46:30;;;;;;;36.10;23.47;;;;;;;6.59;100.00;102500.56;1760429;80;938798;-73
2021/03/08 09:49:04;;;;;;;34.70;24.87;;;;;;;6.59;100.00;102500.56;1748836;79;938561;-74
2021/03/08 09:51:32;;;;;;;30.37;22.73;;;;;;;6.78;100.00;102501.55;1760114;79;939135;-74
2021/03/08 09:54:03;;;;;;;36.88;23.47;;;;;;;6.81;100.00;102503.86;1748764;79;937829;-73
2021/03/08 09:56:33;;;;;;;33.40;24.73;;;;;;;6.87;100.00;102500.23;1760350;79;937799;-74
2021/03/08 09:59:08;;;;;;;33.40;23.85;;;;;;;7.02;100.00;102495.24;1748851;79;938604;-74
2021/03/08 10:01:38;;;;;;;32.17;24.97;;;;;;;7.10;100.00;102498.30;1760403;79;936949;-74
2021/03/08 10:04:09;;;;;;;34.53;25.50;;;;;;;7.09;100.00;102494.69;1748846;80;939155;-74
2021/03/08 10:06:39;;;;;;;30.97;24.13;;;;;;;7.21;100.00;102501.73;1759490;80;936959;-73
2021/03/08 10:09:20;;;;;;;34.33;24.80;;;;;;;7.35;100.00;102498.34;1748711;79;938881;-73
2021/03/08 10:11:52;;;;;;;34.40;25.47;;;;;;;7.44;100.00;102497.85;1748850;80;938915;-73
2021/03/08 10:14:25;;;;;;;34.53;24.27;;;;;;;7.62;100.00;102489.60;1759572;79;938688;-74
2021/03/08 10:17:05;;;;;;;29.98;23.20;;;;;;;7.62;100.00;102485.98;1748597;79;938859;-74
2021/03/08 10:19:36;;;;;;;31.77;24.30;;;;;;;7.33;100.00;102488.34;1760294;80;937181;-73
2021/03/08 10:22:06;;;;;;;32.73;24.65;;;;;;;7.34;100.00;102487.81;1748927;80;938677;-73
2021/03/08 10:24:38;;;;;;;29.73;22.40;;;;;;;7.33;100.00;102486.11;1760568;80;936689;-73
2021/03/08 10:27:10;;;;;;;30.37;24.50;;;;;;;7.23;100.00;102479.69;1748955;80;938692;-74
2021/03/08 10:29:41;;;;;;;34.43;23.47;;;;;;;7.01;100.00;102479.76;1760361;79;936869;-74
2021/03/08 10:32:13;;;;;;;32.07;23.47;;;;;;;7.44;100.00;102481.80;1748792;79;937731;-74
2021/03/08 10:34:44;;;;;;;30.00;22.77;;;;;;;7.68;100.00;102475.41;1760401;79;936906;-74
2021/03/08 10:37:18;;;;;;;30.00;23.43;;;;;;;7.61;100.00;102477.41;1747211;79;1040531;-74
2021/03/08 10:39:52;;;;;;;30.10;22.40;;;;;;;7.72;100.00;102476.12;1760068;80;937857;-73
2021/03/08 10:42:23;;;;;;;32.27;23.50;;;;;;;7.83;100.00;102475.89;1760257;79;938711;-74
2021/03/08 10:44:54;;;;;;;32.33;24.07;;;;;;;7.81;100.00;102468.38;1748720;80;938788;-74
2021/03/08 10:47:24;;;;;;;31.90;23.47;;;;;;;8.03;100.00;102466.88;1760181;80;938697;-73
2021/03/08 10:49:55;;;;;;;30.10;23.38;;;;;;;7.91;100.00;102461.80;1748764;80;938661;-74
2021/03/08 10:52:25;;;;;;;28.00;21.77;;;;;;;8.04;100.00;102459.43;1760419;80;938720;-74
2021/03/08 10:54:55;;;;;;;25.62;20.90;;;;;;;8.24;100.00;102462.28;1748803;80;938799;-74
2021/03/08 10:57:27;;;;;;;29.17;21.17;;;;;;;8.10;100.00;102462.11;1760506;79;938716;-73
2021/03/08 10:59:58;;;;;;;30.17;23.10;;;;;;;8.31;100.00;102469.14;1748838;80;938864;-73
2021/03/08 11:02:29;;;;;;;27.87;21.23;;;;;;;8.22;100.00;102455.27;1760170;79;938874;-73
2021/03/08 11:05:15;;;;;;;28.55;21.17;;;;;;;8.30;100.00;102459.14;1747745;79;945382;-73
2021/03/08 11:07:45;;;;;;;25.10;19.83;;;;;;;8.66;100.00;102463.28;1760583;80;936793;-73
2021/03/08 11:10:16;;;;;;;28.33;21.77;;;;;;;8.74;100.00;102466.25;1760555;80;938747;-73
2021/03/08 11:12:46;;;;;;;28.73;21.63;;;;;;;8.59;100.00;102466.69;1760449;80;936885;-73
2021/03/08 11:15:23;;;;;;;29.40;21.90;;;;;;;8.42;100.00;102463.38;1760444;79;939152;-72
2021/03/08 11:17:53;;;;;;;28.17;21.03;;;;;;;8.26;100.00;102460.64;1748951;80;938617;-75
2021/03/08 11:20:25;;;;;;;31.17;22.77;;;;;;;8.55;100.00;102461.84;1760373;79;938741;-75
2021/03/08 11:23:04;;;;;;;28.35;21.05;;;;;;;8.90;100.00;102459.23;1748842;79;938881;-74
2021/03/08 11:25:38;;;;;;;25.47;20.33;;;;;;;8.88;100.00;102448.91;1760435;80;936835;-75
2021/03/08 11:28:10;;;;;;;26.03;20.57;;;;;;;8.84;100.00;102452.70;1748873;79;938784;-75
2021/03/08 11:30:43;;;;;;;25.67;20.17;;;;;;;8.76;100.00;102446.10;1760525;80;936932;-75